Bridport, United Kingdom
Current Conditions -  °F | °C
As of 3:50 AM on Thursday 29 Jan 2015 (Local Time) from EGDY Reporting Station
Scattered Clouds Scattered Clouds  
Wind Chill: 29°   Ceiling: Unl
Heat Index: 37°   Visibility: 6mi
Dew Point: 34°   Wind: 14mph
Humidity: 87%   Direction: 250°WSW
Pressure: 29.41"   Gusts: NA
Location:  50.73°N, 2.76°W
Report Text: EGDY 290350Z 25012KT 9999 SCT030 03/01 Q0996 BLU
Loading
Personal Weather Stations






























Interactive Weather Map New forecast layout! Learn more

10-Day Weather Forecast

Advertisements
Track Severe Weather on mobile